sensor_id;sensor_type;location;lat;lon;timestamp;P1;durP1;ratioP1;P2;durP2;ratioP2
43088;SDS011;28709;52.030;5.652;2023-01-25T00:02:00;26.80;;;15.68;;
43088;SDS011;28709;52.030;5.652;2023-01-25T00:04:26;24.50;;;14.75;;
43088;SDS011;28709;52.030;5.652;2023-01-25T00:06:52;26.88;;;15.13;;
43088;SDS011;28709;52.030;5.652;2023-01-25T00:09:18;22.90;;;13.13;;
43088;SDS011;28709;52.030;5.652;2023-01-25T00:11:44;27.70;;;14.70;;
43088;SDS011;28709;52.030;5.652;2023-01-25T00:14:10;30.13;;;14.23;;
43088;SDS011;28709;52.030;5.652;2023-01-25T00:16:37;21.48;;;13.00;;
43088;SDS011;28709;52.030;5.652;2023-01-25T00:19:05;24.63;;;15.00;;
43088;SDS011;28709;52.030;5.652;2023-01-25T00:21:31;24.20;;;14.32;;
43088;SDS011;28709;52.030;5.652;2023-01-25T00:23:58;27.10;;;14.40;;
43088;SDS011;28709;52.030;5.652;2023-01-25T00:26:24;22.65;;;13.38;;
43088;SDS011;28709;52.030;5.652;2023-01-25T00:28:51;22.23;;;12.95;;
43088;SDS011;28709;52.030;5.652;2023-01-25T00:36:43;30.10;;;16.17;;
43088;SDS011;28709;52.030;5.652;2023-01-25T00:39:10;28.48;;;15.95;;
43088;SDS011;28709;52.030;5.652;2023-01-25T00:41:37;23.00;;;13.85;;
43088;SDS011;28709;52.030;5.652;2023-01-25T00:44:03;23.48;;;13.25;;
43088;SDS011;28709;52.030;5.652;2023-01-25T00:46:28;21.52;;;12.90;;
43088;SDS011;28709;52.030;5.652;2023-01-25T00:48:54;23.33;;;13.02;;
43088;SDS011;28709;52.030;5.652;2023-01-25T00:51:20;23.73;;;12.40;;
43088;SDS011;28709;52.030;5.652;2023-01-25T00:53:46;27.83;;;16.02;;
43088;SDS011;28709;52.030;5.652;2023-01-25T00:56:12;30.88;;;17.27;;
43088;SDS011;28709;52.030;5.652;2023-01-25T00:58:39;23.90;;;12.73;;
43088;SDS011;28709;52.030;5.652;2023-01-25T01:01:05;22.67;;;13.00;;
43088;SDS011;28709;52.030;5.652;2023-01-25T01:03:30;22.67;;;13.18;;
43088;SDS011;28709;52.030;5.652;2023-01-25T01:06:00;24.05;;;14.13;;
43088;SDS011;28709;52.030;5.652;2023-01-25T01:08:32;25.98;;;14.18;;
43088;SDS011;28709;52.030;5.652;2023-01-25T01:10:59;31.05;;;17.55;;
43088;SDS011;28709;52.030;5.652;2023-01-25T01:13:26;30.83;;;17.70;;
43088;SDS011;28709;52.030;5.652;2023-01-25T01:15:52;25.83;;;14.90;;
43088;SDS011;28709;52.030;5.652;2023-01-25T01:18:18;21.20;;;12.30;;
43088;SDS011;28709;52.030;5.652;2023-01-25T01:20:53;21.85;;;12.98;;
43088;SDS011;28709;52.030;5.652;2023-01-25T01:23:19;25.23;;;13.95;;
43088;SDS011;28709;52.030;5.652;2023-01-25T01:25:45;27.85;;;14.60;;
43088;SDS011;28709;52.030;5.652;2023-01-25T01:28:11;21.13;;;11.43;;
43088;SDS011;28709;52.030;5.652;2023-01-25T01:30:37;25.25;;;14.63;;
43088;SDS011;28709;52.030;5.652;2023-01-25T01:33:04;22.45;;;12.70;;
43088;SDS011;28709;52.030;5.652;2023-01-25T01:35:30;22.33;;;14.05;;
43088;SDS011;28709;52.030;5.652;2023-01-25T01:37:56;23.23;;;13.98;;
43088;SDS011;28709;52.030;5.652;2023-01-25T01:40:23;19.85;;;11.02;;
43088;SDS011;28709;52.030;5.652;2023-01-25T01:43:22;22.92;;;12.10;;
43088;SDS011;28709;52.030;5.652;2023-01-25T01:46:04;20.90;;;11.32;;
43088;SDS011;28709;52.030;5.652;2023-01-25T01:48:37;21.65;;;13.32;;
43088;SDS011;28709;52.030;5.652;2023-01-25T01:54:07;19.77;;;11.40;;
43088;SDS011;28709;52.030;5.652;2023-01-25T01:56:47;20.17;;;12.05;;
43088;SDS011;28709;52.030;5.652;2023-01-25T01:59:15;24.35;;;13.55;;
43088;SDS011;28709;52.030;5.652;2023-01-25T02:01:42;26.88;;;14.07;;
43088;SDS011;28709;52.030;5.652;2023-01-25T02:04:08;27.40;;;16.17;;
43088;SDS011;28709;52.030;5.652;2023-01-25T02:06:43;24.38;;;14.13;;
43088;SDS011;28709;52.030;5.652;2023-01-25T02:09:17;25.17;;;13.82;;
43088;SDS011;28709;52.030;5.652;2023-01-25T02:11:46;22.25;;;12.73;;
43088;SDS011;28709;52.030;5.652;2023-01-25T02:14:13;26.92;;;14.73;;
43088;SDS011;28709;52.030;5.652;2023-01-25T02:16:40;34.17;;;19.48;;
43088;SDS011;28709;52.030;5.652;2023-01-25T02:19:07;35.22;;;18.05;;
43088;SDS011;28709;52.030;5.652;2023-01-25T02:21:38;28.90;;;15.48;;
43088;SDS011;28709;52.030;5.652;2023-01-25T02:24:08;27.77;;;15.00;;
43088;SDS011;28709;52.030;5.652;2023-01-25T02:26:46;32.78;;;18.48;;
43088;SDS011;28709;52.030;5.652;2023-01-25T02:29:12;26.10;;;15.88;;
43088;SDS011;28709;52.030;5.652;2023-01-25T02:31:39;31.92;;;19.17;;
43088;SDS011;28709;52.030;5.652;2023-01-25T02:34:07;28.58;;;16.02;;
43088;SDS011;28709;52.030;5.652;2023-01-25T02:36:33;33.05;;;18.23;;
43088;SDS011;28709;52.030;5.652;2023-01-25T02:39:06;32.28;;;17.00;;
43088;SDS011;28709;52.030;5.652;2023-01-25T02:41:36;31.17;;;17.20;;
43088;SDS011;28709;52.030;5.652;2023-01-25T02:44:06;32.42;;;17.42;;
43088;SDS011;28709;52.030;5.652;2023-01-25T02:46:38;35.38;;;19.67;;
43088;SDS011;28709;52.030;5.652;2023-01-25T02:49:05;33.15;;;18.42;;
43088;SDS011;28709;52.030;5.652;2023-01-25T02:51:32;25.58;;;14.93;;
43088;SDS011;28709;52.030;5.652;2023-01-25T02:54:04;28.20;;;15.63;;
43088;SDS011;28709;52.030;5.652;2023-01-25T02:56:32;27.02;;;15.07;;
43088;SDS011;28709;52.030;5.652;2023-01-25T02:58:58;30.20;;;16.88;;
43088;SDS011;28709;52.030;5.652;2023-01-25T03:01:23;27.70;;;16.30;;
43088;SDS011;28709;52.030;5.652;2023-01-25T03:03:50;33.60;;;18.38;;
43088;SDS011;28709;52.030;5.652;2023-01-25T03:06:15;33.50;;;17.67;;
43088;SDS011;28709;52.030;5.652;2023-01-25T03:08:41;30.75;;;18.02;;
43088;SDS011;28709;52.030;5.652;2023-01-25T03:11:07;37.63;;;20.45;;
43088;SDS011;28709;52.030;5.652;2023-01-25T03:13:33;37.42;;;20.20;;
43088;SDS011;28709;52.030;5.652;2023-01-25T03:16:01;36.17;;;19.85;;
43088;SDS011;28709;52.030;5.652;2023-01-25T03:18:31;35.17;;;19.80;;
43088;SDS011;28709;52.030;5.652;2023-01-25T03:21:08;28.52;;;15.10;;
43088;SDS011;28709;52.030;5.652;2023-01-25T03:23:39;27.38;;;16.00;;
43088;SDS011;28709;52.030;5.652;2023-01-25T03:28:42;25.30;;;15.45;;
43088;SDS011;28709;52.030;5.652;2023-01-25T03:31:09;24.65;;;13.95;;
43088;SDS011;28709;52.030;5.652;2023-01-25T03:33:36;25.83;;;15.00;;
43088;SDS011;28709;52.030;5.652;2023-01-25T03:36:02;24.73;;;14.65;;
43088;SDS011;28709;52.030;5.652;2023-01-25T03:38:28;25.10;;;14.20;;
43088;SDS011;28709;52.030;5.652;2023-01-25T03:40:54;25.90;;;14.07;;
43088;SDS011;28709;52.030;5.652;2023-01-25T03:43:20;31.55;;;17.05;;
43088;SDS011;28709;52.030;5.652;2023-01-25T03:45:50;29.92;;;18.30;;
43088;SDS011;28709;52.030;5.652;2023-01-25T03:48:17;36.88;;;19.30;;
43088;SDS011;28709;52.030;5.652;2023-01-25T03:50:47;30.73;;;17.90;;
43088;SDS011;28709;52.030;5.652;2023-01-25T03:53:22;32.47;;;17.40;;
43088;SDS011;28709;52.030;5.652;2023-01-25T03:56:05;32.30;;;18.17;;
43088;SDS011;28709;52.030;5.652;2023-01-25T03:58:33;32.20;;;17.70;;
43088;SDS011;28709;52.030;5.652;2023-01-25T04:01:00;29.25;;;16.80;;
43088;SDS011;28709;52.030;5.652;2023-01-25T04:03:27;34.03;;;19.00;;
43088;SDS011;28709;52.030;5.652;2023-01-25T04:05:53;34.63;;;20.40;;
43088;SDS011;28709;52.030;5.652;2023-01-25T04:08:20;34.30;;;19.88;;
43088;SDS011;28709;52.030;5.652;2023-01-25T04:11:06;27.83;;;16.25;;
43088;SDS011;28709;52.030;5.652;2023-01-25T04:13:33;31.83;;;18.45;;
43088;SDS011;28709;52.030;5.652;2023-01-25T04:16:02;29.00;;;17.85;;
43088;SDS011;28709;52.030;5.652;2023-01-25T04:18:28;30.30;;;17.77;;
43088;SDS011;28709;52.030;5.652;2023-01-25T04:20:54;39.35;;;20.77;;
43088;SDS011;28709;52.030;5.652;2023-01-25T04:23:21;39.00;;;21.45;;
43088;SDS011;28709;52.030;5.652;2023-01-25T04:25:51;29.77;;;17.17;;
43088;SDS011;28709;52.030;5.652;2023-01-25T04:28:20;32.97;;;19.40;;
43088;SDS011;28709;52.030;5.652;2023-01-25T04:30:46;28.92;;;16.85;;
43088;SDS011;28709;52.030;5.652;2023-01-25T04:33:12;28.05;;;16.30;;
43088;SDS011;28709;52.030;5.652;2023-01-25T04:35:38;32.53;;;19.48;;
43088;SDS011;28709;52.030;5.652;2023-01-25T04:38:04;30.40;;;17.58;;
43088;SDS011;28709;52.030;5.652;2023-01-25T04:40:30;34.50;;;20.05;;
43088;SDS011;28709;52.030;5.652;2023-01-25T04:42:55;28.95;;;17.10;;
43088;SDS011;28709;52.030;5.652;2023-01-25T04:45:22;25.52;;;15.35;;
43088;SDS011;28709;52.030;5.652;2023-01-25T04:47:53;41.28;;;21.77;;
43088;SDS011;28709;52.030;5.652;2023-01-25T04:50:23;39.97;;;20.70;;
43088;SDS011;28709;52.030;5.652;2023-01-25T04:52:49;32.28;;;18.55;;
43088;SDS011;28709;52.030;5.652;2023-01-25T04:55:15;34.05;;;19.92;;
43088;SDS011;28709;52.030;5.652;2023-01-25T04:57:41;37.60;;;21.02;;
43088;SDS011;28709;52.030;5.652;2023-01-25T05:00:07;33.15;;;18.73;;
43088;SDS011;28709;52.030;5.652;2023-01-25T05:02:33;35.30;;;20.15;;
43088;SDS011;28709;52.030;5.652;2023-01-25T05:04:59;33.08;;;18.98;;
43088;SDS011;28709;52.030;5.652;2023-01-25T05:07:25;26.70;;;16.13;;
43088;SDS011;28709;52.030;5.652;2023-01-25T05:09:50;37.72;;;20.63;;
43088;SDS011;28709;52.030;5.652;2023-01-25T05:12:16;31.58;;;18.20;;
43088;SDS011;28709;52.030;5.652;2023-01-25T05:14:42;25.65;;;15.10;;
43088;SDS011;28709;52.030;5.652;2023-01-25T05:17:08;30.30;;;15.63;;
43088;SDS011;28709;52.030;5.652;2023-01-25T05:19:33;26.88;;;16.08;;
43088;SDS011;28709;52.030;5.652;2023-01-25T05:22:00;23.60;;;14.38;;
43088;SDS011;28709;52.030;5.652;2023-01-25T05:24:30;24.00;;;14.50;;
43088;SDS011;28709;52.030;5.652;2023-01-25T05:26:57;30.13;;;16.58;;
43088;SDS011;28709;52.030;5.652;2023-01-25T05:29:32;28.35;;;16.55;;
43088;SDS011;28709;52.030;5.652;2023-01-25T05:32:04;33.08;;;17.73;;
43088;SDS011;28709;52.030;5.652;2023-01-25T05:34:37;26.75;;;16.27;;
43088;SDS011;28709;52.030;5.652;2023-01-25T05:37:04;28.92;;;16.55;;
43088;SDS011;28709;52.030;5.652;2023-01-25T05:39:31;30.15;;;16.00;;
43088;SDS011;28709;52.030;5.652;2023-01-25T05:41:57;32.97;;;19.65;;
43088;SDS011;28709;52.030;5.652;2023-01-25T05:44:22;28.60;;;17.23;;
43088;SDS011;28709;52.030;5.652;2023-01-25T05:46:48;33.05;;;18.58;;
43088;SDS011;28709;52.030;5.652;2023-01-25T05:49:14;41.05;;;22.27;;
43088;SDS011;28709;52.030;5.652;2023-01-25T05:51:41;45.88;;;23.48;;
43088;SDS011;28709;52.030;5.652;2023-01-25T05:54:08;38.53;;;22.13;;
43088;SDS011;28709;52.030;5.652;2023-01-25T05:56:37;44.88;;;24.83;;
43088;SDS011;28709;52.030;5.652;2023-01-25T05:59:03;35.30;;;20.30;;
43088;SDS011;28709;52.030;5.652;2023-01-25T06:01:28;35.53;;;19.70;;
43088;SDS011;28709;52.030;5.652;2023-01-25T06:03:54;37.72;;;20.40;;
43088;SDS011;28709;52.030;5.652;2023-01-25T06:06:20;35.83;;;19.85;;
43088;SDS011;28709;52.030;5.652;2023-01-25T06:08:46;38.80;;;21.13;;
43088;SDS011;28709;52.030;5.652;2023-01-25T06:11:16;35.78;;;19.77;;
43088;SDS011;28709;52.030;5.652;2023-01-25T06:13:47;37.08;;;21.15;;
43088;SDS011;28709;52.030;5.652;2023-01-25T06:16:14;37.33;;;21.30;;
43088;SDS011;28709;52.030;5.652;2023-01-25T06:18:40;37.72;;;21.40;;
43088;SDS011;28709;52.030;5.652;2023-01-25T06:21:06;32.88;;;18.67;;
43088;SDS011;28709;52.030;5.652;2023-01-25T06:23:32;29.90;;;17.40;;
43088;SDS011;28709;52.030;5.652;2023-01-25T06:25:58;32.00;;;19.08;;
43088;SDS011;28709;52.030;5.652;2023-01-25T06:28:25;32.17;;;18.70;;
43088;SDS011;28709;52.030;5.652;2023-01-25T06:30:53;33.53;;;19.65;;
43088;SDS011;28709;52.030;5.652;2023-01-25T06:33:19;41.47;;;22.15;;
43088;SDS011;28709;52.030;5.652;2023-01-25T06:35:44;39.85;;;20.98;;
43088;SDS011;28709;52.030;5.652;2023-01-25T06:38:10;34.35;;;19.33;;
43088;SDS011;28709;52.030;5.652;2023-01-25T06:40:36;39.47;;;21.13;;
43088;SDS011;28709;52.030;5.652;2023-01-25T06:43:05;44.10;;;24.60;;
43088;SDS011;28709;52.030;5.652;2023-01-25T06:45:31;40.92;;;21.55;;
43088;SDS011;28709;52.030;5.652;2023-01-25T06:47:57;38.72;;;21.17;;
43088;SDS011;28709;52.030;5.652;2023-01-25T06:50:23;43.85;;;23.95;;
43088;SDS011;28709;52.030;5.652;2023-01-25T06:52:52;38.97;;;20.98;;
43088;SDS011;28709;52.030;5.652;2023-01-25T06:55:18;38.83;;;20.70;;
43088;SDS011;28709;52.030;5.652;2023-01-25T06:57:44;47.33;;;25.02;;
43088;SDS011;28709;52.030;5.652;2023-01-25T07:00:10;39.08;;;20.90;;
43088;SDS011;28709;52.030;5.652;2023-01-25T07:02:37;39.28;;;21.17;;
43088;SDS011;28709;52.030;5.652;2023-01-25T07:05:03;40.03;;;21.23;;
43088;SDS011;28709;52.030;5.652;2023-01-25T07:07:29;39.45;;;21.50;;
43088;SDS011;28709;52.030;5.652;2023-01-25T07:09:54;33.95;;;18.13;;
43088;SDS011;28709;52.030;5.652;2023-01-25T07:12:20;28.63;;;16.33;;
43088;SDS011;28709;52.030;5.652;2023-01-25T07:14:46;33.40;;;17.35;;
43088;SDS011;28709;52.030;5.652;2023-01-25T07:17:13;34.55;;;17.70;;
43088;SDS011;28709;52.030;5.652;2023-01-25T07:19:39;45.05;;;24.92;;
43088;SDS011;28709;52.030;5.652;2023-01-25T07:22:05;44.38;;;24.35;;
43088;SDS011;28709;52.030;5.652;2023-01-25T07:24:30;41.00;;;21.70;;
43088;SDS011;28709;52.030;5.652;2023-01-25T07:26:56;39.13;;;19.17;;
43088;SDS011;28709;52.030;5.652;2023-01-25T07:29:22;40.17;;;22.02;;
43088;SDS011;28709;52.030;5.652;2023-01-25T07:31:48;38.60;;;20.98;;
43088;SDS011;28709;52.030;5.652;2023-01-25T07:34:13;35.90;;;19.38;;
43088;SDS011;28709;52.030;5.652;2023-01-25T07:36:39;40.58;;;21.85;;
43088;SDS011;28709;52.030;5.652;2023-01-25T07:39:09;35.42;;;18.63;;
43088;SDS011;28709;52.030;5.652;2023-01-25T07:41:35;38.88;;;21.52;;
43088;SDS011;28709;52.030;5.652;2023-01-25T07:44:02;36.13;;;19.20;;
43088;SDS011;28709;52.030;5.652;2023-01-25T07:46:28;43.13;;;23.08;;
43088;SDS011;28709;52.030;5.652;2023-01-25T07:48:54;42.53;;;20.83;;
43088;SDS011;28709;52.030;5.652;2023-01-25T07:51:20;39.45;;;20.70;;
43088;SDS011;28709;52.030;5.652;2023-01-25T07:53:48;34.25;;;17.55;;
43088;SDS011;28709;52.030;5.652;2023-01-25T07:56:16;35.88;;;20.25;;
43088;SDS011;28709;52.030;5.652;2023-01-25T07:58:43;42.05;;;20.15;;
43088;SDS011;28709;52.030;5.652;2023-01-25T08:01:10;36.63;;;18.90;;
43088;SDS011;28709;52.030;5.652;2023-01-25T08:03:46;34.25;;;17.88;;
43088;SDS011;28709;52.030;5.652;2023-01-25T08:06:12;31.92;;;18.17;;
43088;SDS011;28709;52.030;5.652;2023-01-25T08:08:39;29.83;;;15.70;;
43088;SDS011;28709;52.030;5.652;2023-01-25T08:11:14;39.90;;;20.70;;
43088;SDS011;28709;52.030;5.652;2023-01-25T08:13:42;37.35;;;20.05;;
43088;SDS011;28709;52.030;5.652;2023-01-25T08:16:11;42.95;;;22.17;;
43088;SDS011;28709;52.030;5.652;2023-01-25T08:18:38;42.65;;;21.83;;
43088;SDS011;28709;52.030;5.652;2023-01-25T08:21:04;40.38;;;21.35;;
43088;SDS011;28709;52.030;5.652;2023-01-25T08:23:30;42.25;;;20.92;;
43088;SDS011;28709;52.030;5.652;2023-01-25T08:26:00;38.90;;;21.08;;
43088;SDS011;28709;52.030;5.652;2023-01-25T08:28:36;48.67;;;23.70;;
43088;SDS011;28709;52.030;5.652;2023-01-25T08:31:13;38.85;;;20.75;;
43088;SDS011;28709;52.030;5.652;2023-01-25T08:33:40;37.70;;;19.98;;
43088;SDS011;28709;52.030;5.652;2023-01-25T08:36:08;37.25;;;19.40;;
43088;SDS011;28709;52.030;5.652;2023-01-25T08:38:34;51.47;;;26.10;;
43088;SDS011;28709;52.030;5.652;2023-01-25T08:41:07;47.53;;;24.40;;
43088;SDS011;28709;52.030;5.652;2023-01-25T08:43:38;44.50;;;22.23;;
43088;SDS011;28709;52.030;5.652;2023-01-25T08:46:04;44.88;;;21.40;;
43088;SDS011;28709;52.030;5.652;2023-01-25T08:48:30;46.97;;;24.42;;
43088;SDS011;28709;52.030;5.652;2023-01-25T08:50:56;45.60;;;23.17;;
43088;SDS011;28709;52.030;5.652;2023-01-25T08:53:22;45.60;;;23.88;;
43088;SDS011;28709;52.030;5.652;2023-01-25T08:55:48;43.97;;;21.23;;
43088;SDS011;28709;52.030;5.652;2023-01-25T08:58:14;42.25;;;21.45;;
43088;SDS011;28709;52.030;5.652;2023-01-25T09:00:41;44.22;;;21.92;;
43088;SDS011;28709;52.030;5.652;2023-01-25T09:03:07;37.05;;;19.23;;
43088;SDS011;28709;52.030;5.652;2023-01-25T09:05:34;37.40;;;18.45;;
43088;SDS011;28709;52.030;5.652;2023-01-25T09:08:02;43.17;;;22.20;;
43088;SDS011;28709;52.030;5.652;2023-01-25T09:10:29;44.08;;;23.05;;
43088;SDS011;28709;52.030;5.652;2023-01-25T09:12:55;40.90;;;21.00;;
43088;SDS011;28709;52.030;5.652;2023-01-25T09:15:20;46.38;;;23.63;;
43088;SDS011;28709;52.030;5.652;2023-01-25T09:17:52;45.38;;;23.98;;
43088;SDS011;28709;52.030;5.652;2023-01-25T09:20:20;44.17;;;21.95;;
43088;SDS011;28709;52.030;5.652;2023-01-25T09:22:46;45.30;;;20.65;;
43088;SDS011;28709;52.030;5.652;2023-01-25T09:25:12;41.45;;;21.95;;
43088;SDS011;28709;52.030;5.652;2023-01-25T09:27:38;39.85;;;21.30;;
43088;SDS011;28709;52.030;5.652;2023-01-25T09:30:05;47.20;;;23.60;;
43088;SDS011;28709;52.030;5.652;2023-01-25T09:32:31;38.75;;;20.17;;
43088;SDS011;28709;52.030;5.652;2023-01-25T09:34:57;38.72;;;20.20;;
43088;SDS011;28709;52.030;5.652;2023-01-25T09:37:23;45.20;;;22.23;;
43088;SDS011;28709;52.030;5.652;2023-01-25T09:39:48;48.42;;;24.92;;
43088;SDS011;28709;52.030;5.652;2023-01-25T09:42:16;43.22;;;22.33;;
43088;SDS011;28709;52.030;5.652;2023-01-25T09:47:50;38.13;;;18.83;;
43088;SDS011;28709;52.030;5.652;2023-01-25T09:55:40;43.40;;;22.60;;
43088;SDS011;28709;52.030;5.652;2023-01-25T09:58:09;39.58;;;20.15;;
43088;SDS011;28709;52.030;5.652;2023-01-25T10:00:43;39.22;;;19.63;;
43088;SDS011;28709;52.030;5.652;2023-01-25T10:06:15;41.05;;;20.98;;
43088;SDS011;28709;52.030;5.652;2023-01-25T10:11:32;35.92;;;17.45;;
43088;SDS011;28709;52.030;5.652;2023-01-25T10:13:58;37.97;;;19.73;;
43088;SDS011;28709;52.030;5.652;2023-01-25T10:16:26;39.20;;;18.60;;
43088;SDS011;28709;52.030;5.652;2023-01-25T10:19:22;31.98;;;16.38;;
43088;SDS011;28709;52.030;5.652;2023-01-25T10:24:43;50.05;;;24.98;;
43088;SDS011;28709;52.030;5.652;2023-01-25T10:30:27;45.65;;;22.92;;
43088;SDS011;28709;52.030;5.652;2023-01-25T10:35:32;50.67;;;25.00;;
43088;SDS011;28709;52.030;5.652;2023-01-25T10:38:10;40.47;;;19.88;;
43088;SDS011;28709;52.030;5.652;2023-01-25T10:40:45;42.78;;;21.00;;
43088;SDS011;28709;52.030;5.652;2023-01-25T10:43:21;42.97;;;22.70;;
43088;SDS011;28709;52.030;5.652;2023-01-25T10:45:48;44.20;;;21.83;;
43088;SDS011;28709;52.030;5.652;2023-01-25T10:48:19;40.47;;;21.42;;
43088;SDS011;28709;52.030;5.652;2023-01-25T10:50:48;38.15;;;20.58;;
43088;SDS011;28709;52.030;5.652;2023-01-25T10:53:20;43.88;;;22.50;;
43088;SDS011;28709;52.030;5.652;2023-01-25T10:56:11;43.13;;;22.35;;
43088;SDS011;28709;52.030;5.652;2023-01-25T10:58:49;44.22;;;22.48;;
43088;SDS011;28709;52.030;5.652;2023-01-25T11:01:26;42.55;;;21.83;;
43088;SDS011;28709;52.030;5.652;2023-01-25T11:03:56;48.83;;;24.25;;
43088;SDS011;28709;52.030;5.652;2023-01-25T11:06:46;48.50;;;24.55;;
43088;SDS011;28709;52.030;5.652;2023-01-25T11:14:27;47.75;;;24.65;;
43088;SDS011;28709;52.030;5.652;2023-01-25T11:16:55;41.65;;;19.67;;
43088;SDS011;28709;52.030;5.652;2023-01-25T11:22:03;36.95;;;18.92;;
43088;SDS011;28709;52.030;5.652;2023-01-25T11:24:49;37.85;;;19.65;;
43088;SDS011;28709;52.030;5.652;2023-01-25T11:29:45;42.08;;;20.55;;
43088;SDS011;28709;52.030;5.652;2023-01-25T11:32:31;47.97;;;24.00;;
43088;SDS011;28709;52.030;5.652;2023-01-25T11:34:57;40.88;;;21.80;;
43088;SDS011;28709;52.030;5.652;2023-01-25T11:40:04;48.35;;;22.50;;
43088;SDS011;28709;52.030;5.652;2023-01-25T11:50:44;50.28;;;23.88;;
43088;SDS011;28709;52.030;5.652;2023-01-25T12:22:59;58.85;;;26.92;;
43088;SDS011;28709;52.030;5.652;2023-01-25T12:28:18;47.17;;;22.75;;
43088;SDS011;28709;52.030;5.652;2023-01-25T12:36:12;53.67;;;25.15;;
43088;SDS011;28709;52.030;5.652;2023-01-25T12:38:48;44.47;;;21.73;;
43088;SDS011;28709;52.030;5.652;2023-01-25T12:44:02;40.65;;;20.15;;
43088;SDS011;28709;52.030;5.652;2023-01-25T12:46:44;47.38;;;24.00;;
43088;SDS011;28709;52.030;5.652;2023-01-25T12:49:16;41.25;;;20.98;;
43088;SDS011;28709;52.030;5.652;2023-01-25T12:51:50;44.75;;;21.98;;
43088;SDS011;28709;52.030;5.652;2023-01-25T12:54:21;42.60;;;21.63;;
43088;SDS011;28709;52.030;5.652;2023-01-25T12:57:15;37.75;;;18.63;;
43088;SDS011;28709;52.030;5.652;2023-01-25T13:00:07;45.10;;;21.38;;
43088;SDS011;28709;52.030;5.652;2023-01-25T13:05:27;45.05;;;22.98;;
43088;SDS011;28709;52.030;5.652;2023-01-25T13:08:11;42.78;;;21.30;;
43088;SDS011;28709;52.030;5.652;2023-01-25T13:10:41;43.78;;;20.33;;
43088;SDS011;28709;52.030;5.652;2023-01-25T13:13:19;46.72;;;21.55;;
43088;SDS011;28709;52.030;5.652;2023-01-25T13:15:48;47.75;;;24.35;;
43088;SDS011;28709;52.030;5.652;2023-01-25T13:20:58;49.85;;;24.00;;
43088;SDS011;28709;52.030;5.652;2023-01-25T13:28:55;53.83;;;24.60;;
43088;SDS011;28709;52.030;5.652;2023-01-25T13:34:11;38.05;;;18.95;;
43088;SDS011;28709;52.030;5.652;2023-01-25T13:36:57;56.25;;;25.83;;
43088;SDS011;28709;52.030;5.652;2023-01-25T13:42:01;61.53;;;29.13;;
43088;SDS011;28709;52.030;5.652;2023-01-25T13:44:34;53.78;;;25.92;;
43088;SDS011;28709;52.030;5.652;2023-01-25T13:47:04;54.28;;;25.35;;
43088;SDS011;28709;52.030;5.652;2023-01-25T13:49:48;54.97;;;26.10;;
43088;SDS011;28709;52.030;5.652;2023-01-25T13:52:28;43.70;;;20.90;;
43088;SDS011;28709;52.030;5.652;2023-01-25T13:54:55;60.35;;;28.48;;
43088;SDS011;28709;52.030;5.652;2023-01-25T13:57:29;57.78;;;26.73;;
43088;SDS011;28709;52.030;5.652;2023-01-25T14:00:12;48.95;;;22.67;;
43088;SDS011;28709;52.030;5.652;2023-01-25T14:02:40;46.95;;;21.23;;
43088;SDS011;28709;52.030;5.652;2023-01-25T14:05:28;50.75;;;25.33;;
43088;SDS011;28709;52.030;5.652;2023-01-25T14:07:54;51.28;;;22.85;;
43088;SDS011;28709;52.030;5.652;2023-01-25T14:10:22;45.47;;;21.33;;
43088;SDS011;28709;52.030;5.652;2023-01-25T14:12:50;46.47;;;22.33;;
43088;SDS011;28709;52.030;5.652;2023-01-25T14:20:41;60.33;;;28.98;;
43088;SDS011;28709;52.030;5.652;2023-01-25T14:23:21;62.75;;;29.25;;
43088;SDS011;28709;52.030;5.652;2023-01-25T14:25:48;63.35;;;27.17;;
43088;SDS011;28709;52.030;5.652;2023-01-25T14:28:15;63.42;;;28.50;;
43088;SDS011;28709;52.030;5.652;2023-01-25T14:30:42;63.40;;;28.33;;
43088;SDS011;28709;52.030;5.652;2023-01-25T14:33:15;69.65;;;27.58;;
43088;SDS011;28709;52.030;5.652;2023-01-25T14:35:44;58.78;;;25.70;;
43088;SDS011;28709;52.030;5.652;2023-01-25T14:43:43;64.75;;;27.77;;
43088;SDS011;28709;52.030;5.652;2023-01-25T14:51:49;53.28;;;23.42;;
43088;SDS011;28709;52.030;5.652;2023-01-25T14:54:18;59.83;;;25.50;;
43088;SDS011;28709;52.030;5.652;2023-01-25T14:56:54;70.38;;;30.58;;
43088;SDS011;28709;52.030;5.652;2023-01-25T15:02:00;67.55;;;30.02;;
43088;SDS011;28709;52.030;5.652;2023-01-25T15:04:35;63.05;;;27.65;;
43088;SDS011;28709;52.030;5.652;2023-01-25T15:07:01;62.47;;;27.25;;
43088;SDS011;28709;52.030;5.652;2023-01-25T15:09:38;59.08;;;26.20;;
43088;SDS011;28709;52.030;5.652;2023-01-25T15:14:48;55.08;;;24.98;;
43088;SDS011;28709;52.030;5.652;2023-01-25T15:23:25;65.63;;;28.27;;
43088;SDS011;28709;52.030;5.652;2023-01-25T15:25:54;59.60;;;24.48;;
43088;SDS011;28709;52.030;5.652;2023-01-25T15:28:22;64.90;;;28.40;;
43088;SDS011;28709;52.030;5.652;2023-01-25T15:30:49;67.32;;;29.88;;
43088;SDS011;28709;52.030;5.652;2023-01-25T15:33:28;56.47;;;24.88;;
43088;SDS011;28709;52.030;5.652;2023-01-25T15:35:56;65.20;;;26.13;;
43088;SDS011;28709;52.030;5.652;2023-01-25T15:38:22;68.22;;;30.00;;
43088;SDS011;28709;52.030;5.652;2023-01-25T15:40:49;58.05;;;25.67;;
43088;SDS011;28709;52.030;5.652;2023-01-25T15:43:15;55.88;;;24.77;;
43088;SDS011;28709;52.030;5.652;2023-01-25T15:45:42;58.20;;;24.58;;
43088;SDS011;28709;52.030;5.652;2023-01-25T15:48:13;66.32;;;28.48;;
43088;SDS011;28709;52.030;5.652;2023-01-25T15:50:41;57.97;;;24.40;;
43088;SDS011;28709;52.030;5.652;2023-01-25T15:53:14;52.40;;;23.30;;
43088;SDS011;28709;52.030;5.652;2023-01-25T15:55:41;52.63;;;23.52;;
43088;SDS011;28709;52.030;5.652;2023-01-25T15:58:19;46.97;;;21.10;;
43088;SDS011;28709;52.030;5.652;2023-01-25T16:00:47;58.85;;;25.85;;
43088;SDS011;28709;52.030;5.652;2023-01-25T16:03:14;54.63;;;23.48;;
43088;SDS011;28709;52.030;5.652;2023-01-25T16:05:40;59.15;;;25.75;;
43088;SDS011;28709;52.030;5.652;2023-01-25T16:08:06;61.92;;;26.73;;
43088;SDS011;28709;52.030;5.652;2023-01-25T16:10:42;56.83;;;25.10;;
43088;SDS011;28709;52.030;5.652;2023-01-25T16:13:08;67.43;;;29.02;;
43088;SDS011;28709;52.030;5.652;2023-01-25T16:15:34;68.05;;;29.60;;
43088;SDS011;28709;52.030;5.652;2023-01-25T16:18:00;60.28;;;26.63;;
43088;SDS011;28709;52.030;5.652;2023-01-25T16:20:26;62.17;;;27.05;;
43088;SDS011;28709;52.030;5.652;2023-01-25T16:22:52;55.35;;;24.42;;
43088;SDS011;28709;52.030;5.652;2023-01-25T16:25:17;50.72;;;21.27;;
43088;SDS011;28709;52.030;5.652;2023-01-25T16:27:43;56.08;;;23.95;;
43088;SDS011;28709;52.030;5.652;2023-01-25T16:30:19;51.55;;;21.42;;
43088;SDS011;28709;52.030;5.652;2023-01-25T16:32:47;61.83;;;27.02;;
43088;SDS011;28709;52.030;5.652;2023-01-25T16:35:15;57.33;;;24.02;;
43088;SDS011;28709;52.030;5.652;2023-01-25T16:37:41;55.05;;;23.70;;
43088;SDS011;28709;52.030;5.652;2023-01-25T16:40:28;62.42;;;23.67;;
43088;SDS011;28709;52.030;5.652;2023-01-25T16:42:55;53.63;;;23.27;;
43088;SDS011;28709;52.030;5.652;2023-01-25T16:45:21;56.65;;;23.15;;
43088;SDS011;28709;52.030;5.652;2023-01-25T16:47:48;67.93;;;26.27;;
43088;SDS011;28709;52.030;5.652;2023-01-25T16:50:15;53.55;;;22.52;;
43088;SDS011;28709;52.030;5.652;2023-01-25T16:52:44;50.20;;;22.30;;